createdAt,value
2023-06-10T00:00:19.056Z,97701.34
2023-06-10T00:04:56.820Z,97700.56
2023-06-10T00:09:16.250Z,97703.97
2023-06-10T00:13:34.695Z,97697.94
2023-06-10T00:17:54.363Z,97708.66
2023-06-10T00:22:14.215Z,97707.63
2023-06-10T00:26:31.892Z,97710.53
2023-06-10T00:30:49.452Z,97718.63
2023-06-10T00:35:08.626Z,97711.03
2023-06-10T00:39:26.633Z,97717.06
2023-06-10T00:43:45.433Z,97721.50
2023-06-10T00:48:03.544Z,97723.38
2023-06-10T00:52:24.087Z,97727.03
2023-06-10T00:56:44.395Z,97722.81
2023-06-10T01:01:04.307Z,97722.78
2023-06-10T01:05:23.640Z,97724.91
2023-06-10T01:09:58.532Z,97734.63
2023-06-10T01:14:18.611Z,97730.94
2023-06-10T01:18:37.124Z,97737.75
2023-06-10T01:22:56.114Z,97737.25
2023-06-10T01:27:17.458Z,97743.53
2023-06-10T01:32:03.435Z,97740.91
2023-06-10T01:36:22.981Z,97743.00
2023-06-10T01:40:41.947Z,97740.09
2023-06-10T01:45:00.688Z,97740.38
2023-06-10T01:49:18.441Z,97738.53
2023-06-10T01:53:36.851Z,97737.25
2023-06-10T01:57:55.543Z,97736.97
2023-06-10T02:02:13.740Z,97737.47
2023-06-10T02:06:32.743Z,97744.06
2023-06-10T02:10:51.408Z,97739.59
2023-06-10T02:15:10.041Z,97742.25
2023-06-10T02:19:29.393Z,97740.38
2023-06-10T02:23:47.106Z,97741.94
2023-06-10T02:28:07.074Z,97735.91
2023-06-10T02:32:24.934Z,97747.44
2023-06-10T02:36:42.964Z,97752.41
2023-06-10T02:41:00.571Z,97748.78
2023-06-10T02:45:20.693Z,97752.69
2023-06-10T02:49:38.434Z,97751.91
2023-06-10T02:53:56.073Z,97752.47
2023-06-10T02:58:14.062Z,97757.16
2023-06-10T03:02:33.512Z,97761.13
2023-06-10T03:06:52.020Z,97751.91
2023-06-10T03:11:09.898Z,97757.22
2023-06-10T03:15:27.830Z,97756.38
2023-06-10T03:19:45.333Z,97765.81
2023-06-10T03:24:04.491Z,97778.69
2023-06-10T03:28:23.734Z,97783.91
2023-06-10T03:32:42.669Z,97771.38
2023-06-10T03:37:00.503Z,97772.66
2023-06-10T03:41:18.090Z,97784.16
2023-06-10T03:45:37.310Z,97792.84
2023-06-10T03:49:54.927Z,97786.28
2023-06-10T03:54:12.985Z,97800.72
2023-06-10T03:58:31.309Z,97805.16
2023-06-10T04:02:50.983Z,97800.16
2023-06-10T04:07:09.978Z,97794.63
2023-06-10T04:11:27.795Z,97793.63
2023-06-10T04:15:45.264Z,97801.78
2023-06-10T04:20:05.247Z,97811.72
2023-06-10T04:24:23.575Z,97798.88
2023-06-10T04:28:41.283Z,97804.41
2023-06-10T04:33:00.493Z,97802.06
2023-06-10T04:37:18.394Z,97809.69
2023-06-10T04:41:36.276Z,97809.41
2023-06-10T04:45:53.822Z,97810.53
2023-06-10T04:50:13.077Z,97827.03
2023-06-10T04:54:31.248Z,97824.47
2023-06-10T04:58:48.853Z,97830.22
2023-06-10T05:03:07.075Z,97829.44
2023-06-10T05:07:25.443Z,97840.44
2023-06-10T05:11:42.943Z,97831.00
2023-06-10T05:16:00.756Z,97836.53
2023-06-10T05:20:18.263Z,97832.06
2023-06-10T05:24:36.358Z,97846.22
2023-06-10T05:28:54.716Z,97843.59
2023-06-10T05:33:12.424Z,97840.63
2023-06-10T05:37:31.412Z,97838.59
2023-06-10T05:41:49.012Z,97840.09
2023-06-10T05:46:06.936Z,97849.06
2023-06-10T05:50:26.536Z,97855.38
2023-06-10T05:54:44.105Z,97860.03
2023-06-10T05:59:03.260Z,97864.22
2023-06-10T06:03:20.993Z,97874.47
2023-06-10T06:07:40.279Z,97868.22
2023-06-10T06:11:58.120Z,97869.72
2023-06-10T06:16:16.082Z,97880.50
2023-06-10T06:20:34.228Z,97875.28
2023-06-10T06:24:52.710Z,97884.41
2023-06-10T06:29:10.415Z,97889.97
2023-06-10T06:33:28.104Z,97894.13
2023-06-10T06:37:47.229Z,97894.22
2023-06-10T06:42:05.548Z,97903.13
2023-06-10T06:46:23.652Z,97896.56
2023-06-10T06:50:43.335Z,97912.56
2023-06-10T06:55:01.934Z,97912.59
2023-06-10T06:59:21.158Z,97927.84
2023-06-10T07:03:38.790Z,97932.56
2023-06-10T07:07:57.798Z,97938.31
2023-06-10T07:12:15.568Z,97945.69
2023-06-10T07:16:33.369Z,97948.03
2023-06-10T07:20:50.869Z,97943.00
2023-06-10T07:25:09.832Z,97937.44
2023-06-10T07:29:27.793Z,97942.72
2023-06-10T07:33:46.199Z,97939.09
2023-06-10T07:38:04.551Z,97949.38
2023-06-10T07:42:22.108Z,97948.88
2023-06-10T07:46:41.320Z,97962.88
2023-06-10T07:50:59.075Z,97971.53
2023-06-10T07:55:17.035Z,97983.63
2023-06-10T07:59:37.008Z,97970.28
2023-06-10T08:03:56.122Z,97965.75
2023-06-10T08:08:15.672Z,97978.47
2023-06-10T08:12:35.554Z,97986.53
2023-06-10T08:16:54.860Z,97981.09
2023-06-10T08:21:12.515Z,97996.84
2023-06-10T08:25:31.145Z,97997.44
2023-06-10T08:29:49.550Z,98002.28
2023-06-10T08:34:07.155Z,97987.41
2023-06-10T08:38:25.928Z,97991.88
2023-06-10T08:42:53.097Z,97985.88
2023-06-10T08:47:17.231Z,98003.44
2023-06-10T08:51:37.896Z,98007.38
2023-06-10T08:56:00.358Z,98005.31
2023-06-10T09:00:18.469Z,98003.47
2023-06-10T09:04:37.550Z,97998.25
2023-06-10T09:09:00.892Z,98013.72
2023-06-10T09:13:21.163Z,98014.50
2023-06-10T09:17:39.370Z,98011.91
2023-06-10T09:21:57.825Z,98024.00
2023-06-10T09:26:17.001Z,98032.16
2023-06-10T09:30:36.062Z,98028.63
2023-06-10T09:34:54.537Z,98026.56
2023-06-10T09:39:19.350Z,98026.06
2023-06-10T09:43:55.389Z,98024.25
2023-06-10T09:48:14.528Z,98036.56
2023-06-10T09:52:33.119Z,98036.84
2023-06-10T09:56:53.384Z,98041.34
2023-06-10T10:01:14.130Z,98037.13
2023-06-10T10:05:31.975Z,98036.06
2023-06-10T10:09:51.824Z,98024.94
2023-06-10T10:14:10.900Z,98045.00
2023-06-10T10:18:32.892Z,98060.78
2023-06-10T10:22:53.941Z,98054.25
2023-06-10T10:27:54.019Z,98043.47
2023-06-10T10:32:16.067Z,98058.22
2023-06-10T10:36:34.369Z,98062.97
2023-06-10T10:40:53.295Z,98064.28
2023-06-10T10:45:12.446Z,98060.09
2023-06-10T10:49:32.439Z,98069.03
2023-06-10T10:54:15.574Z,98070.31
2023-06-10T10:58:36.042Z,98072.16
2023-06-10T11:02:57.385Z,98059.25
2023-06-10T11:07:23.289Z,98048.97
2023-06-10T11:11:51.503Z,98046.00
2023-06-10T11:16:11.719Z,98060.78
2023-06-10T11:20:59.849Z,98003.78
2023-06-10T11:25:18.041Z,97988.41
2023-06-10T11:29:35.728Z,97980.66
2023-06-10T11:34:06.957Z,97979.69
2023-06-10T11:38:24.764Z,97975.91
2023-06-10T11:42:44.310Z,97993.56
2023-06-10T11:47:01.942Z,97968.09
2023-06-10T11:51:21.357Z,97978.47
2023-06-10T11:55:52.645Z,97992.19
2023-06-10T12:00:10.725Z,97992.88
2023-06-10T12:04:28.417Z,98007.31
2023-06-10T12:08:46.303Z,97997.59
2023-06-10T12:13:06.833Z,98033.25
2023-06-10T12:17:34.522Z,98005.25
2023-06-10T12:21:54.849Z,98058.66
2023-06-10T12:26:12.468Z,98077.56
2023-06-10T12:30:31.358Z,98032.44
2023-06-10T12:34:49.597Z,97997.34
2023-06-10T12:39:07.801Z,98089.63
2023-06-10T12:43:26.435Z,98051.09
2023-06-10T12:47:44.101Z,98016.91
2023-06-10T12:52:02.945Z,98009.28
2023-06-10T12:56:21.481Z,97986.66
2023-06-10T13:00:40.244Z,98025.63
2023-06-10T13:04:57.558Z,98008.34
2023-06-10T13:09:16.691Z,97959.31
2023-06-10T13:13:36.556Z,97966.16
2023-06-10T13:17:54.625Z,97901.75
2023-06-10T13:22:14.175Z,97913.50
2023-06-10T13:26:32.626Z,97960.09
2023-06-10T13:30:51.279Z,98010.56
2023-06-10T13:35:10.602Z,98011.81
2023-06-10T13:39:29.125Z,97900.38
2023-06-10T13:43:47.473Z,98048.09
2023-06-10T13:48:08.197Z,98196.97
2023-06-10T13:52:26.242Z,98319.94
2023-06-10T13:56:44.033Z,98140.94
2023-06-10T14:01:03.214Z,97914.38
2023-06-10T14:05:21.828Z,97898.09
2023-06-10T14:09:41.792Z,97887.63
2023-06-10T14:14:00.913Z,97889.19
2023-06-10T14:18:19.088Z,97893.91
2023-06-10T14:22:37.066Z,97876.06
2023-06-10T14:26:55.392Z,97882.38
2023-06-10T14:31:13.101Z,97891.03
2023-06-10T14:35:32.206Z,97893.38
2023-06-10T14:39:49.960Z,97904.38
2023-06-10T14:44:08.590Z,97910.72
2023-06-10T14:48:28.928Z,97916.00
2023-06-10T14:52:46.959Z,97948.84
2023-06-10T14:57:04.858Z,97958.81
2023-06-10T15:01:23.436Z,97980.38
2023-06-10T15:05:41.140Z,98001.97
2023-06-10T15:09:58.712Z,98019.28
2023-06-10T15:14:16.493Z,97947.53
2023-06-10T15:18:34.745Z,97946.50
2023-06-10T15:22:52.731Z,97951.72
2023-06-10T15:27:11.473Z,97952.25
2023-06-10T15:31:29.737Z,97960.13
2023-06-10T15:35:47.392Z,97977.47
2023-06-10T15:40:06.671Z,97974.59
2023-06-10T15:44:24.267Z,97954.88
2023-06-10T15:48:43.243Z,97935.44
2023-06-10T15:53:01.580Z,97928.88
2023-06-10T15:57:23.456Z,97933.81
2023-06-10T16:01:42.686Z,97937.50
2023-06-10T16:06:01.797Z,97934.66
2023-06-10T16:10:20.417Z,97942.75
2023-06-10T16:14:38.020Z,97949.03
2023-06-10T16:18:56.277Z,97962.16
2023-06-10T16:23:14.798Z,97968.25
2023-06-10T16:27:32.376Z,97967.97
2023-06-10T16:31:51.336Z,97971.53
2023-06-10T16:36:08.558Z,97990.44
2023-06-10T16:40:26.792Z,97992.56
2023-06-10T16:44:44.917Z,97988.59
2023-06-10T16:49:03.527Z,97985.69
2023-06-10T16:53:21.220Z,97995.47
2023-06-10T16:57:39.757Z,98008.81
2023-06-10T17:01:59.217Z,98020.31
2023-06-10T17:06:19.586Z,98016.97
2023-06-10T17:10:37.565Z,98018.81
2023-06-10T17:14:55.578Z,98007.19
2023-06-10T17:19:13.910Z,98012.94
2023-06-10T17:23:32.002Z,98009.22
2023-06-10T17:27:51.994Z,98016.81
2023-06-10T17:32:10.618Z,98013.91
2023-06-10T17:36:29.284Z,98017.59
2023-06-10T17:40:47.088Z,98032.06
2023-06-10T17:45:04.957Z,98037.22
2023-06-10T17:49:31.610Z,98034.09
2023-06-10T17:53:51.492Z,98035.69
2023-06-10T17:58:09.562Z,98036.72
2023-06-10T18:02:27.390Z,98027.50
2023-06-10T18:06:46.725Z,98025.88
2023-06-10T18:11:04.369Z,98034.28
2023-06-10T18:15:22.536Z,98023.81
2023-06-10T18:19:40.540Z,98032.72
2023-06-10T18:23:58.929Z,98030.63
2023-06-10T18:28:17.557Z,98035.63
2023-06-10T18:32:35.728Z,98043.25
2023-06-10T18:36:55.356Z,98045.06
2023-06-10T18:41:13.606Z,98042.75
2023-06-10T18:45:31.958Z,98050.81
2023-06-10T18:49:49.707Z,98057.16
2023-06-10T18:54:08.146Z,98061.56
2023-06-10T18:58:25.972Z,98067.59
2023-06-10T19:02:46.295Z,98070.69
2023-06-10T19:07:04.719Z,98075.25
2023-06-10T19:11:23.185Z,98083.63
2023-06-10T19:15:42.657Z,98084.09
2023-06-10T19:20:00.584Z,98076.72
2023-06-10T19:24:21.418Z,98078.59
2023-06-10T19:28:39.734Z,98081.78
2023-06-10T19:32:58.199Z,98079.09
2023-06-10T19:37:16.756Z,98080.16
2023-06-10T19:41:37.139Z,98085.38
2023-06-10T19:45:55.849Z,98078.59
2023-06-10T19:50:15.686Z,98084.63
2023-06-10T19:54:37.941Z,98085.09
2023-06-10T19:58:55.075Z,98088.50
2023-06-10T20:03:13.591Z,98093.16
2023-06-10T20:07:32.508Z,98100.81
2023-06-10T20:11:51.523Z,98101.31
2023-06-10T20:16:09.231Z,98098.41
2023-06-10T20:20:28.753Z,98099.56
2023-06-10T20:24:48.795Z,98103.94
2023-06-10T20:29:06.636Z,98101.75
2023-06-10T20:33:24.937Z,98109.13
2023-06-10T20:37:43.699Z,98101.25
2023-06-10T20:42:01.332Z,98104.34
2023-06-10T20:46:19.669Z,98113.78
2023-06-10T20:50:38.343Z,98114.34
2023-06-10T20:54:57.523Z,98116.72
2023-06-10T20:59:16.278Z,98110.59
2023-06-10T21:03:33.961Z,98132.38
2023-06-10T21:07:52.490Z,98130.06
2023-06-10T21:12:11.856Z,98123.16
2023-06-10T21:16:31.766Z,98130.56
2023-06-10T21:20:50.657Z,98130.72
2023-06-10T21:25:10.465Z,98122.97
2023-06-10T21:29:29.927Z,98125.00
2023-06-10T21:33:48.076Z,98118.41
2023-06-10T21:38:07.427Z,98127.56
2023-06-10T21:42:25.078Z,98135.47
2023-06-10T21:46:43.480Z,98126.66
2023-06-10T21:51:01.129Z,98138.59
2023-06-10T21:55:19.597Z,98131.50
2023-06-10T21:59:39.769Z,98129.19
2023-06-10T22:03:57.645Z,98114.53
2023-06-10T22:08:16.771Z,98126.22
2023-06-10T22:12:34.396Z,98127.06
2023-06-10T22:16:54.184Z,98128.38
2023-06-10T22:21:12.708Z,98128.84
2023-06-10T22:25:30.810Z,98135.22
2023-06-10T22:29:48.946Z,98130.44
2023-06-10T22:34:07.289Z,98127.56
2023-06-10T22:38:25.859Z,98131.13
2023-06-10T22:42:42.916Z,98128.91
2023-06-10T22:47:02.131Z,98132.81
2023-06-10T22:51:21.178Z,98125.41
2023-06-10T22:55:38.873Z,98125.63
2023-06-10T22:59:57.316Z,98129.41
2023-06-10T23:04:15.024Z,98129.88
2023-06-10T23:08:33.175Z,98130.28
2023-06-10T23:12:51.503Z,98132.03
2023-06-10T23:17:09.872Z,98130.41
2023-06-10T23:21:35.385Z,98126.16
2023-06-10T23:25:53.554Z,98129.59
2023-06-10T23:30:11.615Z,98121.81
2023-06-10T23:34:29.562Z,98119.66
2023-06-10T23:38:47.690Z,98126.69
2023-06-10T23:43:05.419Z,98120.50
2023-06-10T23:47:23.571Z,98121.25
2023-06-10T23:51:41.947Z,98116.75
2023-06-10T23:55:59.522Z,98116.25
